createdAt,value
2023-05-18T00:00:21.148Z,100653.56
2023-05-18T00:05:26.152Z,100655.50
2023-05-18T00:10:31.732Z,100650.19
2023-05-18T00:15:36.844Z,100652.69
2023-05-18T00:20:42.887Z,100641.44
2023-05-18T00:25:47.847Z,100639.88
2023-05-18T00:30:57.095Z,100623.59
2023-05-18T00:36:02.626Z,100627.03
2023-05-18T00:41:07.701Z,100622.97
2023-05-18T00:46:13.147Z,100627.22
2023-05-18T00:51:18.831Z,100628.09
2023-05-18T00:56:26.400Z,100625.81
2023-05-18T01:01:35.862Z,100614.41
2023-05-18T01:06:44.060Z,100606.03
2023-05-18T01:12:02.043Z,100614.22
2023-05-18T01:17:41.041Z,100606.38
2023-05-18T01:23:11.422Z,100607.34
2023-05-18T01:28:20.022Z,100598.69
2023-05-18T01:33:26.555Z,100597.59
2023-05-18T01:38:32.071Z,100595.06
2023-05-18T01:43:39.943Z,100589.63
2023-05-18T01:48:50.594Z,100593.09
2023-05-18T01:54:02.476Z,100601.97
2023-05-18T01:59:07.933Z,100581.19
2023-05-18T02:04:14.288Z,100584.94
2023-05-18T02:09:19.339Z,100580.56
2023-05-18T02:14:25.548Z,100563.72
2023-05-18T02:19:34.593Z,100567.41
2023-05-18T02:24:40.917Z,100562.78
2023-05-18T02:29:45.896Z,100567.84
2023-05-18T02:34:54.481Z,100572.63
2023-05-18T02:39:59.467Z,100563.75
2023-05-18T02:45:04.953Z,100559.88
2023-05-18T02:50:10.995Z,100555.94
2023-05-18T02:55:16.168Z,100543.41
2023-05-18T03:00:33.303Z,100546.50
2023-05-18T03:05:37.500Z,100538.22
2023-05-18T03:10:42.594Z,100530.03
2023-05-18T03:15:48.476Z,100525.25
2023-05-18T03:20:54.046Z,100540.81
2023-05-18T03:25:59.438Z,100519.81
2023-05-18T03:31:06.641Z,100502.41
2023-05-18T03:36:14.341Z,100509.00
2023-05-18T03:41:20.819Z,100498.75
2023-05-18T03:46:27.303Z,100502.34
2023-05-18T03:51:33.620Z,100490.50
2023-05-18T03:56:39.878Z,100489.69
2023-05-18T04:01:45.750Z,100481.94
2023-05-18T04:06:52.995Z,100470.94
2023-05-18T04:11:57.976Z,100460.09
2023-05-18T04:17:07.707Z,100456.63
2023-05-18T04:22:13.943Z,100448.28
2023-05-18T04:27:18.937Z,100438.53
2023-05-18T04:32:28.331Z,100429.16
2023-05-18T04:37:34.180Z,100428.09
2023-05-18T04:42:46.577Z,100405.94
2023-05-18T04:47:54.939Z,100398.72
2023-05-18T04:53:03.425Z,100404.44
2023-05-18T04:58:09.668Z,100386.34
2023-05-18T05:03:15.009Z,100381.81
2023-05-18T05:08:20.045Z,100378.31
2023-05-18T05:13:25.058Z,100366.19
2023-05-18T05:18:30.137Z,100348.38
2023-05-18T05:23:35.850Z,100338.63
2023-05-18T05:28:41.971Z,100342.41
2023-05-18T05:33:47.564Z,100327.84
2023-05-18T05:38:52.666Z,100330.28
2023-05-18T05:43:58.372Z,100328.44
2023-05-18T05:49:04.683Z,100305.13
2023-05-18T05:54:10.907Z,100303.28
2023-05-18T05:59:16.880Z,100312.22
2023-05-18T06:04:22.959Z,100281.88
2023-05-18T06:09:29.836Z,100275.91
2023-05-18T06:14:35.077Z,100269.16
2023-05-18T06:19:40.364Z,100251.53
2023-05-18T06:24:45.494Z,100244.50
2023-05-18T06:30:13.871Z,100244.50
2023-05-18T06:35:48.116Z,100233.66
2023-05-18T06:40:53.270Z,100213.59
2023-05-18T06:45:58.725Z,100223.63
2023-05-18T06:51:13.615Z,100248.56
2023-05-18T06:56:20.055Z,100201.91
2023-05-18T07:01:26.422Z,100200.03
2023-05-18T07:06:35.569Z,100208.44
2023-05-18T07:11:41.896Z,100189.22
2023-05-18T07:16:48.556Z,100187.56
2023-05-18T07:21:54.073Z,100177.25
2023-05-18T07:27:00.795Z,100159.88
2023-05-18T07:32:06.561Z,100167.97
2023-05-18T07:37:12.156Z,100156.31
2023-05-18T07:42:18.808Z,100148.16
2023-05-18T07:47:29.742Z,100138.38
2023-05-18T07:52:35.892Z,100148.97
2023-05-18T07:57:40.584Z,100141.94
2023-05-18T08:02:47.465Z,100131.34
2023-05-18T08:07:53.425Z,100121.84
2023-05-18T08:13:02.174Z,100118.63
2023-05-18T08:18:11.340Z,100114.31
2023-05-18T08:23:16.553Z,100107.78
2023-05-18T08:28:22.082Z,100102.63
2023-05-18T08:33:30.135Z,100101.28
2023-05-18T08:38:36.568Z,100096.41
2023-05-18T08:43:48.237Z,100091.53
2023-05-18T08:48:57.134Z,100078.53
2023-05-18T08:54:10.560Z,100088.06
2023-05-18T08:59:20.461Z,100086.97
2023-05-18T09:04:26.719Z,100087.50
2023-05-18T09:09:32.951Z,100087.25
2023-05-18T09:14:38.247Z,100087.00
2023-05-18T09:19:43.239Z,100085.41
2023-05-18T09:24:48.722Z,100072.19
2023-05-18T09:29:58.848Z,100088.78
2023-05-18T09:35:11.400Z,100063.66
2023-05-18T09:40:17.982Z,100066.13
2023-05-18T09:45:30.194Z,100062.09
2023-05-18T09:50:36.201Z,100054.00
2023-05-18T09:55:50.053Z,100046.47
2023-05-18T10:00:58.209Z,100046.75
2023-05-18T10:06:14.737Z,100056.50
2023-05-18T10:11:23.226Z,100044.03
2023-05-18T10:16:28.532Z,100073.56
2023-05-18T10:21:38.042Z,100046.75
2023-05-18T10:26:45.995Z,100055.41
2023-05-18T10:31:55.152Z,100059.19
2023-05-18T10:37:06.514Z,100062.38
2023-05-18T10:42:13.691Z,100070.19
2023-05-18T10:47:22.233Z,100089.34
2023-05-18T10:52:33.087Z,100069.84
2023-05-18T10:57:39.921Z,100073.34
2023-05-18T11:02:45.815Z,100068.66
2023-05-18T11:07:51.189Z,100074.53
2023-05-18T11:12:56.381Z,100080.38
2023-05-18T11:18:21.422Z,100079.59
2023-05-18T11:23:26.551Z,100069.81
2023-05-18T11:28:31.957Z,100075.47
2023-05-18T11:33:39.634Z,100110.72
2023-05-18T11:39:12.792Z,100076.34
2023-05-18T11:44:20.005Z,100098.97
2023-05-18T11:49:28.673Z,100124.84
2023-05-18T11:54:41.596Z,100109.16
2023-05-18T11:59:48.358Z,100104.16
2023-05-18T12:05:04.133Z,100125.94
2023-05-18T12:10:15.795Z,100133.69
2023-05-18T12:15:26.375Z,100160.53
2023-05-18T12:20:32.366Z,100138.63
2023-05-18T12:25:38.615Z,100149.31
2023-05-18T12:30:45.255Z,100174.22
2023-05-18T12:35:50.051Z,100181.38
2023-05-18T12:40:56.917Z,100202.38
2023-05-18T12:46:07.370Z,100201.31
2023-05-18T12:51:20.772Z,100218.56
2023-05-18T12:56:28.553Z,100186.38
2023-05-18T13:01:45.332Z,100194.41
2023-05-18T13:06:50.348Z,100190.88
2023-05-18T13:12:07.246Z,100191.63
2023-05-18T13:17:13.183Z,100206.66
2023-05-18T13:22:19.233Z,100199.59
2023-05-18T13:27:27.178Z,100202.78
2023-05-18T13:32:32.518Z,100209.69
2023-05-18T13:37:37.590Z,100227.19
2023-05-18T13:42:42.863Z,100238.19
2023-05-18T13:47:52.113Z,100246.78
2023-05-18T13:52:57.597Z,100249.81
2023-05-18T13:58:02.858Z,100264.13
2023-05-18T14:03:07.683Z,100281.25
2023-05-18T14:08:13.731Z,100324.81
2023-05-18T14:13:19.830Z,100327.03
2023-05-18T14:18:25.006Z,100321.41
2023-05-18T14:23:31.086Z,100339.53
2023-05-18T14:28:37.210Z,100378.31
2023-05-18T14:33:42.530Z,100407.34
2023-05-18T14:38:47.878Z,100418.34
2023-05-18T14:43:55.092Z,100402.09
2023-05-18T14:48:59.423Z,100400.59
2023-05-18T14:54:04.770Z,100410.56
2023-05-18T14:59:09.158Z,100385.09
2023-05-18T15:04:16.127Z,100410.16
2023-05-18T15:09:22.178Z,100419.78
2023-05-18T15:14:27.970Z,100412.50
2023-05-18T15:19:33.241Z,100424.38
2023-05-18T15:24:38.572Z,100423.38
2023-05-18T15:29:43.822Z,100402.47
2023-05-18T15:34:52.269Z,100456.72
2023-05-18T15:40:00.197Z,100402.09
2023-05-18T15:45:06.416Z,100406.00
2023-05-18T15:50:12.030Z,100358.31
2023-05-18T15:55:16.980Z,100344.44
2023-05-18T16:00:24.838Z,100319.22
2023-05-18T16:05:30.018Z,100299.00
2023-05-18T16:10:34.965Z,100272.75
2023-05-18T16:15:40.425Z,100244.31
2023-05-18T16:20:46.348Z,100248.34
2023-05-18T16:25:51.644Z,100242.88
2023-05-18T16:30:56.676Z,100274.25
2023-05-18T16:36:01.284Z,100310.94
2023-05-18T16:41:07.477Z,100313.25
2023-05-18T16:46:15.201Z,100293.94
2023-05-18T16:51:20.526Z,100289.00
2023-05-18T16:56:26.565Z,100282.84
2023-05-18T17:01:32.069Z,100272.56
2023-05-18T17:06:37.432Z,100268.69
2023-05-18T17:11:42.368Z,100254.72
2023-05-18T17:16:48.673Z,100266.47
2023-05-18T17:21:53.827Z,100247.16
2023-05-18T17:26:58.635Z,100231.81
2023-05-18T17:32:03.835Z,100229.59
2023-05-18T17:37:08.823Z,100225.50
2023-05-18T17:42:13.896Z,100230.25
2023-05-18T17:47:19.599Z,100244.03
2023-05-18T17:52:24.671Z,100254.69
2023-05-18T17:57:30.970Z,100262.94
2023-05-18T18:02:35.878Z,100279.38
2023-05-18T18:07:41.040Z,100262.53
2023-05-18T18:12:46.116Z,100241.97
2023-05-18T18:17:51.217Z,100238.06
2023-05-18T18:22:56.122Z,100224.09
2023-05-18T18:28:00.595Z,100207.44
2023-05-18T18:33:06.251Z,100209.94
2023-05-18T18:38:11.391Z,100220.63
2023-05-18T18:43:17.985Z,100184.25
2023-05-18T18:48:23.937Z,100185.72
2023-05-18T18:53:29.015Z,100189.19
2023-05-18T18:58:34.016Z,100185.09
2023-05-18T19:03:38.922Z,100183.25
2023-05-18T19:08:44.763Z,100178.72
2023-05-18T19:13:49.993Z,100161.88
2023-05-18T19:18:55.863Z,100146.06
2023-05-18T19:24:00.981Z,100131.84
2023-05-18T19:29:06.051Z,100161.88
2023-05-18T19:34:10.881Z,100154.66
2023-05-18T19:39:18.776Z,100141.91
2023-05-18T19:44:23.874Z,100151.19
2023-05-18T19:49:30.908Z,100154.06
2023-05-18T19:54:38.161Z,100151.56
2023-05-18T19:59:44.032Z,100121.16
2023-05-18T20:04:49.759Z,100131.91
2023-05-18T20:09:55.908Z,100144.28
2023-05-18T20:15:00.869Z,100147.97
2023-05-18T20:20:07.329Z,100092.94
2023-05-18T20:25:13.286Z,100102.97
2023-05-18T20:30:18.059Z,100119.44
2023-05-18T20:35:23.475Z,100127.25
2023-05-18T20:40:32.257Z,100104.44
2023-05-18T20:45:37.948Z,100098.72
2023-05-18T20:50:42.912Z,100106.13
2023-05-18T20:55:49.925Z,100127.69
2023-05-18T21:00:57.571Z,100098.91
2023-05-18T21:06:03.654Z,100089.06
2023-05-18T21:11:08.921Z,100085.34
2023-05-18T21:16:13.279Z,100087.00
2023-05-18T21:21:21.048Z,100082.69
2023-05-18T21:26:26.954Z,100072.59
2023-05-18T21:31:32.869Z,100093.16
2023-05-18T21:36:38.034Z,100087.81
2023-05-18T21:41:44.890Z,100086.78
2023-05-18T21:46:50.048Z,100073.06
2023-05-18T21:51:54.609Z,100075.28
2023-05-18T21:56:59.701Z,100087.59
2023-05-18T22:02:04.919Z,100077.56
2023-05-18T22:07:11.040Z,100088.63
2023-05-18T22:12:15.808Z,100090.69
2023-05-18T22:17:20.755Z,100097.09
2023-05-18T22:27:35.019Z,100098.28
2023-05-18T22:32:40.695Z,100093.34
2023-05-18T22:37:45.652Z,100098.69
2023-05-18T22:42:50.727Z,100092.53
2023-05-18T22:47:55.779Z,100095.59
2023-05-18T22:53:00.699Z,100085.13
2023-05-18T22:58:05.912Z,100093.34
2023-05-18T23:03:10.974Z,100091.94
2023-05-18T23:08:16.702Z,100094.38
2023-05-18T23:13:20.942Z,100102.63
2023-05-18T23:18:27.884Z,100103.03
2023-05-18T23:23:34.054Z,100099.31
2023-05-18T23:28:39.225Z,100104.06
2023-05-18T23:33:44.555Z,100095.03
2023-05-18T23:38:52.692Z,100131.81
2023-05-18T23:43:58.727Z,100106.72
2023-05-18T23:49:04.141Z,100143.09
2023-05-18T23:54:09.352Z,100115.13
2023-05-18T23:59:17.274Z,100110.00
